sensor_id;sensor_type;location;lat;lon;timestamp;pressure;altitude;pressure_sealevel;temperature;humidity
11888;BME280;6003;42.756;23.130;2023-07-13T00:00:07;157842.91;;;21.01;70.95
11888;BME280;6003;42.756;23.130;2023-07-13T00:02:35;157844.22;;;21.02;71.72
11888;BME280;6003;42.756;23.130;2023-07-13T00:05:03;157846.88;;;21.03;71.88
11888;BME280;6003;42.756;23.130;2023-07-13T00:07:30;157842.91;;;21.01;73.05
11888;BME280;6003;42.756;23.130;2023-07-13T00:09:57;157824.25;;;20.94;73.93
11888;BME280;6003;42.756;23.130;2023-07-13T00:12:27;157820.28;;;20.92;74.12
11888;BME280;6003;42.756;23.130;2023-07-13T00:14:56;157808.25;;;20.88;73.45
11888;BME280;6003;42.756;23.130;2023-07-13T00:17:24;157808.25;;;20.88;72.78
11888;BME280;6003;42.756;23.130;2023-07-13T00:19:52;157802.91;;;20.86;73.46
11888;BME280;6003;42.756;23.130;2023-07-13T00:22:21;157797.63;;;20.84;73.87
11888;BME280;6003;42.756;23.130;2023-07-13T00:24:50;157797.63;;;20.84;73.80
11888;BME280;6003;42.756;23.130;2023-07-13T00:27:17;157794.94;;;20.83;73.24
11888;BME280;6003;42.756;23.130;2023-07-13T00:29:45;157800.28;;;20.85;73.35
11888;BME280;6003;42.756;23.130;2023-07-13T00:32:13;157784.31;;;20.79;74.67
11888;BME280;6003;42.756;23.130;2023-07-13T00:34:40;157770.97;;;20.73;75.39
11888;BME280;6003;42.756;23.130;2023-07-13T00:37:07;157765.69;;;20.71;75.19
11888;BME280;6003;42.756;23.130;2023-07-13T00:39:34;157760.34;;;20.69;75.41
11888;BME280;6003;42.756;23.130;2023-07-13T00:42:02;157753.69;;;20.67;75.50
11888;BME280;6003;42.756;23.130;2023-07-13T00:44:29;157762.97;;;20.70;74.93
11888;BME280;6003;42.756;23.130;2023-07-13T00:46:58;157778.97;;;20.77;75.37
11888;BME280;6003;42.756;23.130;2023-07-13T00:49:28;157768.31;;;20.72;75.76
11888;BME280;6003;42.756;23.130;2023-07-13T00:51:59;157797.63;;;20.84;76.15
11888;BME280;6003;42.756;23.130;2023-07-13T00:54:30;157797.63;;;20.84;76.72
11888;BME280;6003;42.756;23.130;2023-07-13T00:57:01;157797.63;;;20.84;77.57
11888;BME280;6003;42.756;23.130;2023-07-13T00:59:29;157784.31;;;20.79;78.32
11888;BME280;6003;42.756;23.130;2023-07-13T01:01:58;157770.97;;;20.73;77.76
11888;BME280;6003;42.756;23.130;2023-07-13T01:04:26;157747.00;;;20.64;77.90
11888;BME280;6003;42.756;23.130;2023-07-13T01:06:53;157739.03;;;20.61;78.35
11888;BME280;6003;42.756;23.130;2023-07-13T01:09:20;157707.03;;;20.49;79.61
11888;BME280;6003;42.756;23.130;2023-07-13T01:11:47;157685.72;;;20.41;79.61
11888;BME280;6003;42.756;23.130;2023-07-13T01:14:15;157675.03;;;20.37;79.90
11888;BME280;6003;42.756;23.130;2023-07-13T01:16:44;157659.06;;;20.31;79.07
11888;BME280;6003;42.756;23.130;2023-07-13T01:19:24;157640.47;;;20.23;79.03
11888;BME280;6003;42.756;23.130;2023-07-13T01:22:03;157647.13;;;20.26;78.42
11888;BME280;6003;42.756;23.130;2023-07-13T01:24:34;157633.78;;;20.21;78.49
11888;BME280;6003;42.756;23.130;2023-07-13T01:27:02;157629.78;;;20.19;78.59
11888;BME280;6003;42.756;23.130;2023-07-13T01:29:30;157619.16;;;20.15;78.47
11888;BME280;6003;42.756;23.130;2023-07-13T01:31:56;157627.13;;;20.18;79.00
11888;BME280;6003;42.756;23.130;2023-07-13T01:34:23;157611.16;;;20.12;80.69
11888;BME280;6003;42.756;23.130;2023-07-13T01:36:50;157597.84;;;20.07;80.86
11888;BME280;6003;42.756;23.130;2023-07-13T01:39:20;157587.22;;;20.03;81.46
11888;BME280;6003;42.756;23.130;2023-07-13T01:41:47;157577.84;;;19.99;81.37
11888;BME280;6003;42.756;23.130;2023-07-13T01:44:14;157563.22;;;19.94;80.89
11888;BME280;6003;42.756;23.130;2023-07-13T01:46:41;157559.25;;;19.92;81.13
11888;BME280;6003;42.756;23.130;2023-07-13T01:49:07;157552.59;;;19.90;80.90
11888;BME280;6003;42.756;23.130;2023-07-13T01:51:34;157548.63;;;19.88;81.54
11888;BME280;6003;42.756;23.130;2023-07-13T01:54:01;157544.59;;;19.87;80.94
11888;BME280;6003;42.756;23.130;2023-07-13T01:56:30;157533.97;;;19.82;82.39
11888;BME280;6003;42.756;23.130;2023-07-13T01:58:56;157527.31;;;19.80;82.23
11888;BME280;6003;42.756;23.130;2023-07-13T02:01:23;157520.66;;;19.77;82.48
11888;BME280;6003;42.756;23.130;2023-07-13T02:03:50;157514.00;;;19.75;81.87
11888;BME280;6003;42.756;23.130;2023-07-13T02:06:17;157517.97;;;19.76;80.96
11888;BME280;6003;42.756;23.130;2023-07-13T02:08:44;157539.28;;;19.84;81.16
11888;BME280;6003;42.756;23.130;2023-07-13T02:11:11;157544.59;;;19.87;81.27
11888;BME280;6003;42.756;23.130;2023-07-13T02:13:40;157556.59;;;19.91;81.55
11888;BME280;6003;42.756;23.130;2023-07-13T02:16:06;157547.25;;;19.88;81.11
11888;BME280;6003;42.756;23.130;2023-07-13T02:18:33;157560.56;;;19.93;81.93
11888;BME280;6003;42.756;23.130;2023-07-13T02:21:00;157544.59;;;19.87;82.39
11888;BME280;6003;42.756;23.130;2023-07-13T02:23:28;157539.28;;;19.84;82.18
11888;BME280;6003;42.756;23.130;2023-07-13T02:25:55;157537.94;;;19.84;82.28
11888;BME280;6003;42.756;23.130;2023-07-13T02:28:23;157533.97;;;19.82;81.86
11888;BME280;6003;42.756;23.130;2023-07-13T02:30:51;157531.28;;;19.81;80.19
11888;BME280;6003;42.756;23.130;2023-07-13T02:33:18;157523.31;;;19.78;80.60
11888;BME280;6003;42.756;23.130;2023-07-13T02:35:44;157526.00;;;19.79;81.25
11888;BME280;6003;42.756;23.130;2023-07-13T02:38:11;157517.97;;;19.76;81.74
11888;BME280;6003;42.756;23.130;2023-07-13T02:40:38;157502.00;;;19.70;81.87
11888;BME280;6003;42.756;23.130;2023-07-13T02:43:05;157500.69;;;19.70;81.85
11888;BME280;6003;42.756;23.130;2023-07-13T02:45:31;157487.31;;;19.65;82.00
11888;BME280;6003;42.756;23.130;2023-07-13T02:48:00;157480.66;;;19.62;81.88
11888;BME280;6003;42.756;23.130;2023-07-13T02:50:26;157470.03;;;19.58;81.82
11888;BME280;6003;42.756;23.130;2023-07-13T02:52:53;157470.03;;;19.58;82.32
11888;BME280;6003;42.756;23.130;2023-07-13T02:55:20;157464.69;;;19.56;83.25
11888;BME280;6003;42.756;23.130;2023-07-13T02:57:47;157438.09;;;19.46;83.84
11888;BME280;6003;42.756;23.130;2023-07-13T03:00:15;157408.84;;;19.34;84.38
11888;BME280;6003;42.756;23.130;2023-07-13T03:02:42;157390.19;;;19.27;84.44
11888;BME280;6003;42.756;23.130;2023-07-13T03:05:11;157391.56;;;19.28;84.45
11888;BME280;6003;42.756;23.130;2023-07-13T03:07:38;157395.50;;;19.29;83.58
11888;BME280;6003;42.756;23.130;2023-07-13T03:10:06;157402.16;;;19.32;83.41
11888;BME280;6003;42.756;23.130;2023-07-13T03:12:33;157411.47;;;19.35;82.95
11888;BME280;6003;42.756;23.130;2023-07-13T03:14:59;157427.44;;;19.42;82.27
11888;BME280;6003;42.756;23.130;2023-07-13T03:17:26;157448.72;;;19.50;82.45
11888;BME280;6003;42.756;23.130;2023-07-13T03:19:53;157478.00;;;19.61;83.46
11888;BME280;6003;42.756;23.130;2023-07-13T03:22:21;157503.31;;;19.71;82.56
11888;BME280;6003;42.756;23.130;2023-07-13T03:24:48;157536.63;;;19.83;81.91
11888;BME280;6003;42.756;23.130;2023-07-13T03:27:15;157573.91;;;19.98;81.01
11888;BME280;6003;42.756;23.130;2023-07-13T03:29:42;157648.44;;;20.26;80.45
11888;BME280;6003;42.756;23.130;2023-07-13T03:32:09;157728.41;;;20.57;79.89
11888;BME280;6003;42.756;23.130;2023-07-13T03:34:36;157805.63;;;20.87;79.70
11888;BME280;6003;42.756;23.130;2023-07-13T03:37:03;157877.50;;;21.14;79.24
11888;BME280;6003;42.756;23.130;2023-07-13T03:39:32;157941.53;;;21.39;78.04
11888;BME280;6003;42.756;23.130;2023-07-13T03:41:58;158013.50;;;21.67;76.71
11888;BME280;6003;42.756;23.130;2023-07-13T03:44:25;158093.44;;;21.97;76.33
11888;BME280;6003;42.756;23.130;2023-07-13T03:46:52;158184.13;;;22.32;75.24
11888;BME280;6003;42.756;23.130;2023-07-13T03:49:19;158296.13;;;22.75;74.39
11888;BME280;6003;42.756;23.130;2023-07-13T03:51:46;158424.22;;;23.24;73.01
11888;BME280;6003;42.756;23.130;2023-07-13T03:54:12;158508.31;;;23.56;71.43
11888;BME280;6003;42.756;23.130;2023-07-13T03:56:41;158539.00;;;23.68;71.00
11888;BME280;6003;42.756;23.130;2023-07-13T03:59:07;158544.34;;;23.70;71.60
11888;BME280;6003;42.756;23.130;2023-07-13T04:01:34;158572.38;;;23.81;71.11
11888;BME280;6003;42.756;23.130;2023-07-13T04:04:01;158573.69;;;23.81;70.63
11888;BME280;6003;42.756;23.130;2023-07-13T04:06:29;158579.06;;;23.83;71.42
11888;BME280;6003;42.756;23.130;2023-07-13T04:08:58;158620.41;;;23.99;70.37
11888;BME280;6003;42.756;23.130;2023-07-13T04:11:27;158720.53;;;24.38;69.04
11888;BME280;6003;42.756;23.130;2023-07-13T04:13:56;158826.06;;;24.78;68.30
11888;BME280;6003;42.756;23.130;2023-07-13T04:16:23;158959.69;;;25.29;67.48
11888;BME280;6003;42.756;23.130;2023-07-13T04:18:50;159188.19;;;26.17;64.53
11888;BME280;6003;42.756;23.130;2023-07-13T04:21:20;159431.53;;;27.10;61.28
11888;BME280;6003;42.756;23.130;2023-07-13T04:23:47;159656.34;;;27.96;57.18
11888;BME280;6003;42.756;23.130;2023-07-13T04:26:14;159867.84;;;28.76;55.85
11888;BME280;6003;42.756;23.130;2023-07-13T04:28:40;160084.81;;;29.59;53.87
11888;BME280;6003;42.756;23.130;2023-07-13T04:31:09;160277.84;;;30.33;53.36
11888;BME280;6003;42.756;23.130;2023-07-13T04:33:36;160347.50;;;30.60;51.14
11888;BME280;6003;42.756;23.130;2023-07-13T04:36:03;160403.81;;;30.81;51.83
11888;BME280;6003;42.756;23.130;2023-07-13T04:38:31;160421.28;;;30.88;51.20
11888;BME280;6003;42.756;23.130;2023-07-13T04:41:01;160460.13;;;31.02;51.25
11888;BME280;6003;42.756;23.130;2023-07-13T04:43:28;160575.44;;;31.46;47.24
11888;BME280;6003;42.756;23.130;2023-07-13T04:45:56;160558.03;;;31.40;50.90
11888;BME280;6003;42.756;23.130;2023-07-13T04:48:24;160583.50;;;31.50;49.20
11888;BME280;6003;42.756;23.130;2023-07-13T04:50:54;160596.91;;;31.55;48.55
11888;BME280;6003;42.756;23.130;2023-07-13T04:53:22;160603.63;;;31.57;47.70
11888;BME280;6003;42.756;23.130;2023-07-13T04:55:49;160623.69;;;31.65;46.62
11888;BME280;6003;42.756;23.130;2023-07-13T04:58:17;160639.84;;;31.71;49.49
11888;BME280;6003;42.756;23.130;2023-07-13T05:00:43;160618.38;;;31.63;47.85
11888;BME280;6003;42.756;23.130;2023-07-13T05:03:10;160596.91;;;31.55;49.21
11888;BME280;6003;42.756;23.130;2023-07-13T05:05:39;160535.19;;;31.31;50.07
11888;BME280;6003;42.756;23.130;2023-07-13T05:08:05;160535.19;;;31.31;50.86
11888;BME280;6003;42.756;23.130;2023-07-13T05:10:33;160567.41;;;31.43;48.77
11888;BME280;6003;42.756;23.130;2023-07-13T05:13:00;160592.88;;;31.53;49.19
11888;BME280;6003;42.756;23.130;2023-07-13T05:15:26;160642.50;;;31.72;49.85
11888;BME280;6003;42.756;23.130;2023-07-13T05:17:53;160680.03;;;31.86;50.50
11888;BME280;6003;42.756;23.130;2023-07-13T05:20:20;160677.38;;;31.85;49.16
11888;BME280;6003;42.756;23.130;2023-07-13T05:22:48;160678.72;;;31.86;50.23
11888;BME280;6003;42.756;23.130;2023-07-13T05:25:16;160602.28;;;31.57;51.71
11888;BME280;6003;42.756;23.130;2023-07-13T05:27:43;160673.34;;;31.84;50.16
11888;BME280;6003;42.756;23.130;2023-07-13T05:30:11;160607.63;;;31.59;51.44
11888;BME280;6003;42.756;23.130;2023-07-13T05:32:38;160779.34;;;32.24;50.17
11888;BME280;6003;42.756;23.130;2023-07-13T05:35:05;160956.50;;;32.92;50.04
11888;BME280;6003;42.756;23.130;2023-07-13T05:37:32;161070.59;;;33.35;50.90
11888;BME280;6003;42.756;23.130;2023-07-13T05:40:01;161207.56;;;33.87;47.47
11888;BME280;6003;42.756;23.130;2023-07-13T05:42:27;161141.78;;;33.62;45.66
11888;BME280;6003;42.756;23.130;2023-07-13T05:44:56;161042.41;;;33.24;47.90
11888;BME280;6003;42.756;23.130;2023-07-13T05:47:23;161136.41;;;33.60;48.81
11888;BME280;6003;42.756;23.130;2023-07-13T05:49:50;161206.25;;;33.87;46.24
11888;BME280;6003;42.756;23.130;2023-07-13T05:52:16;161157.88;;;33.68;44.76
11888;BME280;6003;42.756;23.130;2023-07-13T05:54:43;161015.56;;;33.14;45.82
11888;BME280;6003;42.756;23.130;2023-07-13T05:57:11;161015.56;;;33.14;47.17
11888;BME280;6003;42.756;23.130;2023-07-13T05:59:38;160969.88;;;32.97;47.20
11888;BME280;6003;42.756;23.130;2023-07-13T06:02:05;161124.34;;;33.56;46.15
11888;BME280;6003;42.756;23.130;2023-07-13T06:04:32;161147.16;;;33.64;48.61
11888;BME280;6003;42.756;23.130;2023-07-13T06:06:59;160948.44;;;32.89;47.18
11888;BME280;6003;42.756;23.130;2023-07-13T06:09:26;160977.97;;;33.00;48.07
11888;BME280;6003;42.756;23.130;2023-07-13T06:11:53;160948.44;;;32.89;47.62
11888;BME280;6003;42.756;23.130;2023-07-13T06:14:22;160969.88;;;32.97;47.88
11888;BME280;6003;42.756;23.130;2023-07-13T06:16:49;160977.97;;;33.00;47.01
11888;BME280;6003;42.756;23.130;2023-07-13T06:19:16;160837.09;;;32.46;47.35
11888;BME280;6003;42.756;23.130;2023-07-13T06:21:43;160959.16;;;32.93;46.72
11888;BME280;6003;42.756;23.130;2023-07-13T06:24:10;161034.38;;;33.21;48.10
11888;BME280;6003;42.756;23.130;2023-07-13T06:26:37;161054.50;;;33.29;46.00
11888;BME280;6003;42.756;23.130;2023-07-13T06:29:04;161216.97;;;33.91;44.37
11888;BME280;6003;42.756;23.130;2023-07-13T06:31:32;161230.41;;;33.96;48.88
11888;BME280;6003;42.756;23.130;2023-07-13T06:33:59;161092.09;;;33.43;47.70
11888;BME280;6003;42.756;23.130;2023-07-13T06:36:26;161149.81;;;33.65;46.21
11888;BME280;6003;42.756;23.130;2023-07-13T06:38:53;161233.06;;;33.97;45.52
11888;BME280;6003;42.756;23.130;2023-07-13T06:41:20;161153.88;;;33.67;46.82
11888;BME280;6003;42.756;23.130;2023-07-13T06:43:47;161100.16;;;33.46;47.88
11888;BME280;6003;42.756;23.130;2023-07-13T06:58:01;161403.72;;;34.62;45.57
11888;BME280;6003;42.756;23.130;2023-07-13T07:00:28;161195.47;;;33.83;44.66
11888;BME280;6003;42.756;23.130;2023-07-13T07:02:54;161176.69;;;33.76;47.25
11888;BME280;6003;42.756;23.130;2023-07-13T07:05:21;161269.38;;;34.11;48.57
11888;BME280;6003;42.756;23.130;2023-07-13T07:07:49;161335.19;;;34.36;46.87
11888;BME280;6003;42.756;23.130;2023-07-13T07:10:16;161345.91;;;34.40;48.21
11888;BME280;6003;42.756;23.130;2023-07-13T07:12:43;161276.09;;;34.13;45.29
11888;BME280;6003;42.756;23.130;2023-07-13T07:15:12;161143.13;;;33.63;47.81
11888;BME280;6003;42.756;23.130;2023-07-13T07:17:39;161188.75;;;33.80;48.99
11888;BME280;6003;42.756;23.130;2023-07-13T07:20:07;161235.78;;;33.98;46.72
11888;BME280;6003;42.756;23.130;2023-07-13T07:22:34;161302.91;;;34.24;45.62
11888;BME280;6003;42.756;23.130;2023-07-13T07:25:01;161376.78;;;34.52;45.35
11888;BME280;6003;42.756;23.130;2023-07-13T07:27:28;161294.88;;;34.21;46.99
11888;BME280;6003;42.756;23.130;2023-07-13T07:29:55;161353.97;;;34.43;43.58
11888;BME280;6003;42.756;23.130;2023-07-13T07:32:24;161394.34;;;34.58;45.20
11888;BME280;6003;42.756;23.130;2023-07-13T07:34:51;161453.38;;;34.81;43.26
11888;BME280;6003;42.756;23.130;2023-07-13T07:37:18;161288.16;;;34.18;46.67
11888;BME280;6003;42.756;23.130;2023-07-13T07:39:45;161442.66;;;34.77;47.57
11888;BME280;6003;42.756;23.130;2023-07-13T07:42:11;161496.38;;;34.97;48.15
11888;BME280;6003;42.756;23.130;2023-07-13T07:44:40;161284.13;;;34.17;45.14
11888;BME280;6003;42.756;23.130;2023-07-13T07:47:07;161219.63;;;33.92;48.73
11888;BME280;6003;42.756;23.130;2023-07-13T07:49:36;161084.00;;;33.40;47.05
11888;BME280;6003;42.756;23.130;2023-07-13T07:52:04;161120.28;;;33.54;50.91
11888;BME280;6003;42.756;23.130;2023-07-13T07:54:31;161148.50;;;33.65;51.45
11888;BME280;6003;42.756;23.130;2023-07-13T07:56:58;161353.97;;;34.43;49.00
11888;BME280;6003;42.756;23.130;2023-07-13T07:59:24;161527.34;;;35.09;45.63
11888;BME280;6003;42.756;23.130;2023-07-13T08:01:51;161656.34;;;35.58;42.95
11888;BME280;6003;42.756;23.130;2023-07-13T08:04:18;161739.66;;;35.90;38.49
11888;BME280;6003;42.756;23.130;2023-07-13T08:06:46;161782.75;;;36.06;38.83
11888;BME280;6003;42.756;23.130;2023-07-13T08:09:13;161856.69;;;36.34;41.10
11888;BME280;6003;42.756;23.130;2023-07-13T08:11:40;161890.28;;;36.47;38.61
11888;BME280;6003;42.756;23.130;2023-07-13T08:14:06;161903.78;;;36.52;35.83
11888;BME280;6003;42.756;23.130;2023-07-13T08:16:34;161961.59;;;36.74;38.95
11888;BME280;6003;42.756;23.130;2023-07-13T08:19:01;162005.94;;;36.91;37.07
11888;BME280;6003;42.756;23.130;2023-07-13T08:21:29;162015.38;;;36.95;35.91
11888;BME280;6003;42.756;23.130;2023-07-13T08:23:57;161981.75;;;36.82;35.06
11888;BME280;6003;42.756;23.130;2023-07-13T08:26:24;161988.47;;;36.85;36.31
11888;BME280;6003;42.756;23.130;2023-07-13T08:28:51;161958.88;;;36.73;35.97
11888;BME280;6003;42.756;23.130;2023-07-13T08:31:18;161958.88;;;36.73;35.78
11888;BME280;6003;42.756;23.130;2023-07-13T08:33:44;161996.53;;;36.88;34.54
11888;BME280;6003;42.756;23.130;2023-07-13T08:36:11;162061.16;;;37.12;36.62
11888;BME280;6003;42.756;23.130;2023-07-13T08:38:38;162149.88;;;37.46;36.34
11888;BME280;6003;42.756;23.130;2023-07-13T08:41:12;162184.94;;;37.59;34.74
11888;BME280;6003;42.756;23.130;2023-07-13T08:43:41;162151.28;;;37.46;32.44
11888;BME280;6003;42.756;23.130;2023-07-13T08:46:13;162096.09;;;37.25;33.26
11888;BME280;6003;42.756;23.130;2023-07-13T08:48:45;162139.16;;;37.42;32.76
11888;BME280;6003;42.756;23.130;2023-07-13T08:51:24;162012.66;;;36.94;33.78
11888;BME280;6003;42.756;23.130;2023-07-13T08:53:59;161953.50;;;36.71;35.94
11888;BME280;6003;42.756;23.130;2023-07-13T08:56:30;162001.94;;;36.90;33.20
11888;BME280;6003;42.756;23.130;2023-07-13T08:59:00;162055.75;;;37.10;34.93
11888;BME280;6003;42.756;23.130;2023-07-13T09:01:32;162152.59;;;37.47;35.44
11888;BME280;6003;42.756;23.130;2023-07-13T09:04:05;162179.53;;;37.57;37.20
11888;BME280;6003;42.756;23.130;2023-07-13T09:06:43;162240.06;;;37.80;37.52
11888;BME280;6003;42.756;23.130;2023-07-13T09:09:22;162349.13;;;38.22;34.45
11888;BME280;6003;42.756;23.130;2023-07-13T09:12:00;162421.81;;;38.49;34.73
11888;BME280;6003;42.756;23.130;2023-07-13T09:14:40;162392.16;;;38.38;34.75
11888;BME280;6003;42.756;23.130;2023-07-13T09:17:14;162435.28;;;38.54;34.92
11888;BME280;6003;42.756;23.130;2023-07-13T09:19:45;162349.13;;;38.22;34.02
11888;BME280;6003;42.756;23.130;2023-07-13T09:22:17;162299.31;;;38.03;33.75
11888;BME280;6003;42.756;23.130;2023-07-13T09:24:52;162245.47;;;37.82;34.22
11888;BME280;6003;42.756;23.130;2023-07-13T09:27:25;162244.13;;;37.82;34.86
11888;BME280;6003;42.756;23.130;2023-07-13T09:30:01;162184.94;;;37.59;34.37
11888;BME280;6003;42.756;23.130;2023-07-13T09:32:31;162154.00;;;37.47;37.62
11888;BME280;6003;42.756;23.130;2023-07-13T09:34:59;162151.28;;;37.46;35.67
11888;BME280;6003;42.756;23.130;2023-07-13T09:37:30;162149.88;;;37.46;37.57
11888;BME280;6003;42.756;23.130;2023-07-13T09:39:58;162053.09;;;37.09;34.30
11888;BME280;6003;42.756;23.130;2023-07-13T09:42:27;162066.50;;;37.14;38.02
11888;BME280;6003;42.756;23.130;2023-07-13T09:44:55;162071.91;;;37.16;37.68
11888;BME280;6003;42.756;23.130;2023-07-13T09:47:26;162088.03;;;37.22;35.75
11888;BME280;6003;42.756;23.130;2023-07-13T09:49:56;162065.16;;;37.14;33.55
11888;BME280;6003;42.756;23.130;2023-07-13T09:52:24;162069.22;;;37.15;37.15
11888;BME280;6003;42.756;23.130;2023-07-13T09:54:52;162039.63;;;37.04;34.54
11888;BME280;6003;42.756;23.130;2023-07-13T09:57:25;162018.06;;;36.96;34.06
11888;BME280;6003;42.756;23.130;2023-07-13T09:59:55;162051.72;;;37.09;37.03
11888;BME280;6003;42.756;23.130;2023-07-13T10:02:26;162061.16;;;37.12;38.39
11888;BME280;6003;42.756;23.130;2023-07-13T10:04:56;162063.81;;;37.13;36.49
11888;BME280;6003;42.756;23.130;2023-07-13T10:07:24;162031.56;;;37.01;36.88
11888;BME280;6003;42.756;23.130;2023-07-13T10:09:52;162121.69;;;37.35;34.41
11888;BME280;6003;42.756;23.130;2023-07-13T10:12:20;162117.63;;;37.34;37.15
11888;BME280;6003;42.756;23.130;2023-07-13T10:14:50;162104.16;;;37.29;34.89
11888;BME280;6003;42.756;23.130;2023-07-13T10:17:26;162085.34;;;37.21;35.28
11888;BME280;6003;42.756;23.130;2023-07-13T10:19:59;162011.31;;;36.93;35.45
11888;BME280;6003;42.756;23.130;2023-07-13T10:22:36;162007.31;;;36.92;33.97
11888;BME280;6003;42.756;23.130;2023-07-13T10:25:13;162028.78;;;37.00;35.32
11888;BME280;6003;42.756;23.130;2023-07-13T10:27:41;162101.47;;;37.28;37.16
11888;BME280;6003;42.756;23.130;2023-07-13T10:30:13;162069.22;;;37.15;36.04
11888;BME280;6003;42.756;23.130;2023-07-13T10:32:43;162114.94;;;37.33;38.26
11888;BME280;6003;42.756;23.130;2023-07-13T10:35:12;162050.38;;;37.08;38.25
11888;BME280;6003;42.756;23.130;2023-07-13T10:37:44;162063.81;;;37.13;38.75
11888;BME280;6003;42.756;23.130;2023-07-13T10:40:17;162050.38;;;37.08;36.04
11888;BME280;6003;42.756;23.130;2023-07-13T10:42:48;162040.97;;;37.04;34.72
11888;BME280;6003;42.756;23.130;2023-07-13T10:45:20;162026.13;;;36.99;38.08
11888;BME280;6003;42.756;23.130;2023-07-13T10:47:50;162001.94;;;36.90;37.26
11888;BME280;6003;42.756;23.130;2023-07-13T10:50:22;161945.44;;;36.68;38.28
11888;BME280;6003;42.756;23.130;2023-07-13T10:52:51;161996.53;;;36.88;39.12
11888;BME280;6003;42.756;23.130;2023-07-13T10:55:37;162055.75;;;37.10;38.64
11888;BME280;6003;42.756;23.130;2023-07-13T10:58:13;162104.16;;;37.29;39.13
11888;BME280;6003;42.756;23.130;2023-07-13T11:00:47;162152.59;;;37.47;37.52
11888;BME280;6003;42.756;23.130;2023-07-13T11:03:19;162139.16;;;37.42;35.48
11888;BME280;6003;42.756;23.130;2023-07-13T11:05:49;162084.00;;;37.21;37.46
11888;BME280;6003;42.756;23.130;2023-07-13T11:08:20;162054.44;;;37.10;36.55
11888;BME280;6003;42.756;23.130;2023-07-13T11:10:53;161976.34;;;36.80;37.36
11888;BME280;6003;42.756;23.130;2023-07-13T11:13:56;161992.53;;;36.86;37.03
11888;BME280;6003;42.756;23.130;2023-07-13T11:16:46;161940.09;;;36.66;33.80
11888;BME280;6003;42.756;23.130;2023-07-13T11:19:42;161933.34;;;36.64;39.72
11888;BME280;6003;42.756;23.130;2023-07-13T11:22:16;161936.03;;;36.65;38.46
11888;BME280;6003;42.756;23.130;2023-07-13T11:24:57;161945.44;;;36.68;37.91
11888;BME280;6003;42.756;23.130;2023-07-13T11:27:35;161965.63;;;36.76;40.42
11888;BME280;6003;42.756;23.130;2023-07-13T11:30:25;161969.69;;;36.77;38.27
11888;BME280;6003;42.756;23.130;2023-07-13T11:33:03;161983.06;;;36.82;37.22
11888;BME280;6003;42.756;23.130;2023-07-13T11:35:36;161936.03;;;36.65;35.96
11888;BME280;6003;42.756;23.130;2023-07-13T11:38:12;161937.38;;;36.65;37.28
11888;BME280;6003;42.756;23.130;2023-07-13T11:40:41;161966.94;;;36.76;38.09
11888;BME280;6003;42.756;23.130;2023-07-13T11:43:13;161952.16;;;36.71;38.97
11888;BME280;6003;42.756;23.130;2023-07-13T11:45:41;161934.69;;;36.64;39.18
11888;BME280;6003;42.756;23.130;2023-07-13T11:48:18;161929.31;;;36.62;37.52
11888;BME280;6003;42.756;23.130;2023-07-13T11:50:53;161910.50;;;36.55;39.82
11888;BME280;6003;42.756;23.130;2023-07-13T11:53:21;161902.38;;;36.52;37.96
11888;BME280;6003;42.756;23.130;2023-07-13T11:55:49;161902.38;;;36.52;37.60
11888;BME280;6003;42.756;23.130;2023-07-13T11:58:21;161901.06;;;36.51;39.88
11888;BME280;6003;42.756;23.130;2023-07-13T12:00:49;161923.97;;;36.60;38.94
11888;BME280;6003;42.756;23.130;2023-07-13T12:03:20;161940.09;;;36.66;37.50
11888;BME280;6003;42.756;23.130;2023-07-13T12:05:58;161972.34;;;36.78;40.23
11888;BME280;6003;42.756;23.130;2023-07-13T12:08:26;161950.81;;;36.70;37.23
11888;BME280;6003;42.756;23.130;2023-07-13T12:10:59;161969.69;;;36.77;37.88
11888;BME280;6003;42.756;23.130;2023-07-13T12:13:27;161976.34;;;36.80;38.09
11888;BME280;6003;42.756;23.130;2023-07-13T12:15:56;161953.50;;;36.71;38.36
11888;BME280;6003;42.756;23.130;2023-07-13T12:18:29;161926.63;;;36.61;41.03
11888;BME280;6003;42.756;23.130;2023-07-13T12:20:58;161915.84;;;36.57;39.30
11888;BME280;6003;42.756;23.130;2023-07-13T12:23:28;161897.00;;;36.50;37.11
11888;BME280;6003;42.756;23.130;2023-07-13T12:25:57;161862.03;;;36.36;37.07
11888;BME280;6003;42.756;23.130;2023-07-13T12:28:32;161883.53;;;36.45;37.82
11888;BME280;6003;42.756;23.130;2023-07-13T12:31:00;161902.38;;;36.52;39.27
11888;BME280;6003;42.756;23.130;2023-07-13T12:33:28;161875.47;;;36.42;39.12
11888;BME280;6003;42.756;23.130;2023-07-13T12:36:00;161843.22;;;36.29;38.31
11888;BME280;6003;42.756;23.130;2023-07-13T12:38:30;161829.78;;;36.24;37.34
11888;BME280;6003;42.756;23.130;2023-07-13T12:40:57;161812.31;;;36.18;40.53
11888;BME280;6003;42.756;23.130;2023-07-13T12:43:25;161805.59;;;36.15;38.10
11888;BME280;6003;42.756;23.130;2023-07-13T12:45:58;161786.75;;;36.08;40.39
11888;BME280;6003;42.756;23.130;2023-07-13T12:48:25;161797.53;;;36.12;38.98
11888;BME280;6003;42.756;23.130;2023-07-13T12:50:54;161802.94;;;36.14;40.41
11888;BME280;6003;42.756;23.130;2023-07-13T12:53:28;161767.91;;;36.01;37.99
11888;BME280;6003;42.756;23.130;2023-07-13T12:55:59;161727.59;;;35.85;38.43
11888;BME280;6003;42.756;23.130;2023-07-13T12:58:30;161719.53;;;35.82;36.93
11888;BME280;6003;42.756;23.130;2023-07-13T13:01:00;161718.16;;;35.82;37.80
11888;BME280;6003;42.756;23.130;2023-07-13T13:03:31;161724.88;;;35.84;38.40
11888;BME280;6003;42.756;23.130;2023-07-13T13:06:00;161708.78;;;35.78;40.96
11888;BME280;6003;42.756;23.130;2023-07-13T13:08:30;161719.53;;;35.82;37.46
11888;BME280;6003;42.756;23.130;2023-07-13T13:10:57;161727.59;;;35.85;37.78